Finedon, United Kingdom
Current Conditions -  °F | °C
As of 8:20 AM on Friday 31 Oct 2014 (Local Time) from EGTC Reporting Station
Haze Haze  
Wind Chill: 59°   Ceiling: Unl
Heat Index: 59°   Visibility: 2.5mi
Dew Point: 59°   Wind: 14mph
Humidity: 100%   Direction: 180°S
Pressure: 30"   Gusts: NA
Location:  52.34°N, 0.65°W
Report Text: EGTC 310820Z 18012KT 4000 BR NSC 15/15 Q1016
Loading
Personal Weather Stations






























Interactive Weather Map
Tropical Storm Tracking
New forecast layout! Learn more

10-Day Weather Forecast

Advertisements
Track Severe Weather on mobile